Current | Forecast
Updated: 4:00 PM JST on March 29, 2017
Observed at Nakashibetsu, Russia
Temperature 37°F
Humidity 81%
Dew Point 32°F
Wind Variable at 1 mph
Pressure 29.95 in (Rising)
Conditions Light Rain Showers
Visibility 6.2 miles
UV 1 out of 16
Clouds (FEW) : 1500 ft
Mostly Cloudy (BKN) : 5000 ft
Yesterday's Maximum 41°F
Yesterday's Minimum 34°F approx.
Yesterday's Heating Degree Days 28 approx.
Sunrise7:03 AM +11
Sunset7:39 PM +11
Moon Rise7:50 AM +11
Moon Set8:57 PM +11
Moon PhaseMoon Phase
New Moon
Raw METARMETAR RJCN 290700Z VRB01KT 9999 -SHRASN FEW015 BKN050 03/00 Q1014


Monday
. High: 48° F.
Tuesday
. High: 48° F.
Wednesday
. High: 51° F.
Thursday
. High: 53° F.
Friday
. High: 51° F.
Saturday
. High: 50° F.
Sunday
. High: 48° F.
Monday
. High: 44° F.

Units: English | Metric

Find the Weather for any City, State or Zipcode, or Country:

U.S. State List | Severe Weather | Tropical Storms | Ski Conditions
United States | Canada | Central America | South America | Asia | Europe | Australia | Africa | Islands

Weather Underground

© Copyright 2017
The Weather Company, LLC